METAR rapporter

 

EKAH - Tirstrup (civ/Mi, Denmark
Afstand fra stationen: SSV 25km
Opdateret: 16/10/2021 16:50
Mest skyet
Mest skyet
 Vind fra V
Vind: V 17 km/h
Temperatur: 11°C
Dugpunkt: 5°C
Fugtighed: 67%
Barometer: 1015 hPa
Skydække: Mest skyet
Sigtbarhed: 10 km
Skyhøjde: Delvist skyet 1189 m
Mest skyet 1951 m
2021/10/16 14:50 EKAH 161450Z AUTO 26009KT 220V280 9999 SCT039/// BKN064/// 11/05 Q1015
EKYT - Alborg, Denmark
Afstand fra stationen: NV 91km
Opdateret: 16/10/2021 16:50
Mest skyet
Mest skyet
 Vind fra V
Vind: V 26 km/h
Temperatur: 10°C
Kuldeindeks: 7°C
Dugpunkt: 5°C
Fugtighed: 71%
Barometer: 1013 hPa
Skydække: Mest skyet
Sigtbarhed: 10 km
Skyhøjde: Mest skyet 1433 m
2021/10/16 14:50 EKYT 161450Z AUTO 27014KT 9999 BKN047/// 10/05 Q1013
EKKA - Karup (dan-Afb), Denmark
Afstand fra stationen: V 107km
Opdateret: 16/10/2021 16:50
Mest skyet
Mest skyet
 Vind fra VSV
Vind: VSV 17 km/h
Temperatur: 10°C
Kuldeindeks: 8°C
Dugpunkt: 5°C
Fugtighed: 71%
Barometer: 1015 hPa
Skydække: Mest skyet
Sigtbarhed: 10 km
Skyhøjde: Få skyer 945 m
Mest skyet 1463 m
2021/10/16 14:50 EKKA 161450Z AUTO 25009KT 9999 FEW031/// BKN048/// 10/05 Q1015
 
EKOD - Odense/Beldringe, Denmark
Afstand fra stationen: SSV 116km
Opdateret: 16/10/2021 16:50
Mest skyet
Mest skyet
 Vind fra VSV
Vind: VSV 19 km/h
Temperatur: 11°C
Dugpunkt: 7°C
Fugtighed: 77%
Barometer: 1016 hPa
Skydække: Mest skyet
Sigtbarhed: 10 km
Skyhøjde: Få skyer 1219 m
Mest skyet 1829 m
2021/10/16 14:50 EKOD 161450Z 24010KT 210V270 9999 FEW040 BKN060 11/07 Q1016
EKBI - Billund Airport, Denmark
Afstand fra stationen: SV 134km
Opdateret: 16/10/2021 16:50
Mest skyet
Mest skyet
 Vind fra VSV
Vind: VSV 20 km/h
Temperatur: 9°C
Kuldeindeks: 6°C
Dugpunkt: 6°C
Fugtighed: 82%
Barometer: 1016 hPa
Skydække: Mest skyet
Sigtbarhed: 10 km
Skyhøjde: Delvist skyet 610 m
Mest skyet 1158 m
2021/10/16 14:50 EKBI 161450Z 24011KT 9999 SCT020TCU BKN038 09/06 Q1016
EKCH - Copenhagen/Kastr, Denmark
Afstand fra stationen: SØ 148km
Opdateret: 16/10/2021 16:50
Mest skyet
Mest skyet
 Vind fra V
Vind: V 22 km/h
Temperatur: 10°C
Kuldeindeks: 7°C
Dugpunkt: 7°C
Fugtighed: 82%
Barometer: 1016 hPa
Skydække: Mest skyet
Sigtbarhed: 10 km
Skyhøjde: Få skyer 762 m
Mest skyet 1372 m
2021/10/16 14:50 EKCH 161450Z 27012KT 9999 FEW025TCU BKN045 10/07 Q1016 TEMPO 27015G25KT